createdAt,value
2023-05-24T00:00:52.816Z,98186.21
2023-05-24T00:03:27.525Z,98190.63
2023-05-24T00:05:54.785Z,98183.29
2023-05-24T00:08:21.925Z,98182.64
2023-05-24T00:10:49.145Z,98177.34
2023-05-24T00:13:16.279Z,98177.77
2023-05-24T00:15:43.524Z,98172.16
2023-05-24T00:18:10.652Z,98163.38
2023-05-24T00:20:38.079Z,98169.38
2023-05-24T00:23:05.346Z,98173.80
2023-05-24T00:25:32.470Z,98180.42
2023-05-24T00:27:59.683Z,98181.45
2023-05-24T00:30:26.928Z,98180.18
2023-05-24T00:32:55.910Z,98176.50
2023-05-24T00:35:23.462Z,98171.60
2023-05-24T00:37:50.557Z,98173.80
2023-05-24T00:40:17.664Z,98172.34
2023-05-24T00:42:44.918Z,98172.07
2023-05-24T00:45:12.381Z,98168.55
2023-05-24T00:47:40.482Z,98166.30
2023-05-24T00:50:12.529Z,98166.75
2023-05-24T00:52:41.780Z,98169.54
2023-05-24T00:55:09.691Z,98165.11
2023-05-24T00:57:37.152Z,98159.20
2023-05-24T01:00:05.454Z,98162.61
2023-05-24T01:02:32.728Z,98156.30
2023-05-24T01:04:59.954Z,98153.48
2023-05-24T01:07:37.393Z,98152.21
2023-05-24T01:10:24.829Z,98148.81
2023-05-24T01:13:20.969Z,98149.33
2023-05-24T01:15:54.001Z,98145.73
2023-05-24T01:18:31.013Z,98142.45
2023-05-24T01:21:27.512Z,98141.16
2023-05-24T01:24:17.599Z,98145.80
2023-05-24T01:26:56.737Z,98147.25
2023-05-24T01:29:26.085Z,98143.16
2023-05-24T01:31:53.416Z,98143.00
2023-05-24T01:34:20.371Z,98140.21
2023-05-24T01:36:47.743Z,98147.25
2023-05-24T01:39:14.929Z,98148.44
2023-05-24T01:41:48.298Z,98144.23
2023-05-24T01:44:35.859Z,98143.96
2023-05-24T01:47:16.885Z,98141.88
2023-05-24T01:49:50.204Z,98141.61
2023-05-24T01:52:22.470Z,98137.79
2023-05-24T01:54:52.703Z,98142.34
2023-05-24T01:57:22.320Z,98141.89
2023-05-24T01:59:50.354Z,98146.25
2023-05-24T02:02:18.347Z,98144.70
2023-05-24T02:04:46.911Z,98145.67
2023-05-24T02:07:14.015Z,98141.69
2023-05-24T02:09:41.067Z,98142.58
2023-05-24T02:12:08.989Z,98142.70
2023-05-24T02:14:37.579Z,98143.08
2023-05-24T02:17:05.468Z,98146.04
2023-05-24T02:19:34.196Z,98146.00
2023-05-24T02:22:01.214Z,98147.67
2023-05-24T02:24:28.277Z,98156.77
2023-05-24T02:26:55.655Z,98150.06
2023-05-24T02:29:22.794Z,98150.69
2023-05-24T02:31:54.571Z,98152.48
2023-05-24T02:34:23.488Z,98154.11
2023-05-24T02:36:53.725Z,98152.29
2023-05-24T02:39:20.952Z,98149.83
2023-05-24T02:41:48.144Z,98147.02
2023-05-24T02:44:15.403Z,98145.50
2023-05-24T02:46:42.560Z,98142.50
2023-05-24T02:49:10.086Z,98140.86
2023-05-24T02:51:37.248Z,98140.59
2023-05-24T02:54:04.535Z,98141.90
2023-05-24T02:56:31.578Z,98141.52
2023-05-24T02:58:58.689Z,98137.52
2023-05-24T03:01:26.463Z,98138.12
2023-05-24T03:03:53.992Z,98142.83
2023-05-24T03:06:21.091Z,98144.48
2023-05-24T03:08:49.497Z,98146.40
2023-05-24T03:11:18.732Z,98144.28
2023-05-24T03:13:45.690Z,98142.83
2023-05-24T03:16:12.739Z,98143.81
2023-05-24T03:18:40.256Z,98147.25
2023-05-24T03:21:07.411Z,98150.58
2023-05-24T03:23:34.411Z,98153.81
2023-05-24T03:26:01.634Z,98153.77
2023-05-24T03:28:29.789Z,98157.65
2023-05-24T03:30:56.905Z,98157.32
2023-05-24T03:33:24.053Z,98159.95
2023-05-24T03:35:51.478Z,98157.09
2023-05-24T03:38:18.492Z,98155.96
2023-05-24T03:40:46.406Z,98155.55
2023-05-24T03:43:18.172Z,98153.73
2023-05-24T03:45:48.220Z,98152.16
2023-05-24T03:48:15.433Z,98152.57
2023-05-24T03:50:43.225Z,98148.46
2023-05-24T03:53:11.582Z,98142.25
2023-05-24T03:55:38.877Z,98142.45
2023-05-24T03:58:05.914Z,98143.52
2023-05-24T04:00:32.943Z,98147.59
2023-05-24T04:03:01.192Z,98146.83
2023-05-24T04:05:29.402Z,98146.11
2023-05-24T04:07:56.530Z,98147.17
2023-05-24T04:10:23.625Z,98145.39
2023-05-24T04:12:50.926Z,98144.02
2023-05-24T04:15:18.071Z,98145.79
2023-05-24T04:17:46.419Z,98144.62
2023-05-24T04:20:13.645Z,98148.73
2023-05-24T04:22:40.935Z,98151.16
2023-05-24T04:25:09.386Z,98151.83
2023-05-24T04:27:36.796Z,98148.73
2023-05-24T04:30:05.129Z,98149.94
2023-05-24T04:32:32.143Z,98146.99
2023-05-24T04:35:02.134Z,98146.41
2023-05-24T04:37:31.270Z,98141.35
2023-05-24T04:39:58.504Z,98136.77
2023-05-24T04:42:26.782Z,98137.38
2023-05-24T04:44:53.935Z,98134.63
2023-05-24T04:47:21.064Z,98137.51
2023-05-24T04:49:48.364Z,98137.52
2023-05-24T04:52:15.819Z,98133.57
2023-05-24T04:54:44.282Z,98131.60
2023-05-24T04:57:11.658Z,98124.89
2023-05-24T04:59:38.907Z,98125.14
2023-05-24T05:02:06.185Z,98123.31
2023-05-24T05:04:33.630Z,98122.61
2023-05-24T05:07:00.780Z,98123.16
2023-05-24T05:09:28.144Z,98125.70
2023-05-24T05:11:55.396Z,98123.77
2023-05-24T05:14:22.662Z,98125.86
2023-05-24T05:16:49.822Z,98126.05
2023-05-24T05:19:17.287Z,98125.27
2023-05-24T05:21:44.433Z,98124.01
2023-05-24T05:24:12.096Z,98125.38
2023-05-24T05:26:39.776Z,98120.10
2023-05-24T05:29:06.923Z,98121.73
2023-05-24T05:31:34.818Z,98125.35
2023-05-24T05:34:02.074Z,98127.41
2023-05-24T05:36:29.412Z,98127.16
2023-05-24T05:38:56.580Z,98131.86
2023-05-24T05:41:25.976Z,98135.50
2023-05-24T05:43:53.128Z,98132.67
2023-05-24T05:46:21.722Z,98141.41
2023-05-24T05:48:48.777Z,98146.52
2023-05-24T05:51:15.762Z,98142.59
2023-05-24T05:53:42.895Z,98142.47
2023-05-24T05:56:09.888Z,98147.16
2023-05-24T05:58:38.489Z,98149.27
2023-05-24T06:01:05.501Z,98154.85
2023-05-24T06:03:32.747Z,98155.92
2023-05-24T06:06:00.454Z,98163.05
2023-05-24T06:08:30.375Z,98169.58
2023-05-24T06:10:57.488Z,98174.48
2023-05-24T06:13:26.119Z,98177.05
2023-05-24T06:15:53.746Z,98182.84
2023-05-24T06:18:20.919Z,98182.86
2023-05-24T06:20:48.921Z,98187.90
2023-05-24T06:23:16.011Z,98190.28
2023-05-24T06:25:43.476Z,98191.96
2023-05-24T06:28:10.839Z,98197.76
2023-05-24T06:30:37.932Z,98196.52
2023-05-24T06:33:05.125Z,98190.82
2023-05-24T06:35:32.337Z,98197.52
2023-05-24T06:37:59.421Z,98196.79
2023-05-24T06:40:26.576Z,98197.56
2023-05-24T06:42:53.878Z,98203.08
2023-05-24T06:45:21.121Z,98203.85
2023-05-24T06:47:48.265Z,98209.07
2023-05-24T06:50:16.428Z,98205.79
2023-05-24T06:52:43.781Z,98207.67
2023-05-24T06:55:11.189Z,98212.30
2023-05-24T06:57:38.189Z,98214.67
2023-05-24T07:00:12.192Z,98219.40
2023-05-24T07:02:39.518Z,98221.86
2023-05-24T07:05:11.769Z,98221.98
2023-05-24T07:07:39.332Z,98226.86
2023-05-24T07:10:13.503Z,98230.48
2023-05-24T07:12:40.733Z,98231.29
2023-05-24T07:15:09.314Z,98237.35
2023-05-24T07:17:36.650Z,98240.70
2023-05-24T07:20:09.029Z,98244.99
2023-05-24T07:22:36.355Z,98247.20
2023-05-24T07:25:04.341Z,98250.52
2023-05-24T07:27:31.253Z,98251.61
2023-05-24T07:29:58.485Z,98254.56
2023-05-24T07:32:26.383Z,98256.29
2023-05-24T07:34:54.029Z,98261.41
2023-05-24T07:37:23.593Z,98267.58
2023-05-24T07:39:52.026Z,98271.17
2023-05-24T07:42:20.282Z,98275.42
2023-05-24T07:44:47.453Z,98283.48
2023-05-24T07:47:15.277Z,98290.68
2023-05-24T07:49:42.320Z,98293.15
2023-05-24T07:52:09.371Z,98297.67
2023-05-24T07:54:36.742Z,98298.64
2023-05-24T07:57:04.776Z,98304.93
2023-05-24T07:59:33.158Z,98307.44
2023-05-24T08:02:05.036Z,98311.38
2023-05-24T08:04:35.348Z,98318.63
2023-05-24T08:07:04.684Z,98318.78
2023-05-24T08:09:37.482Z,98320.31
2023-05-24T08:12:06.228Z,98324.99
2023-05-24T08:14:33.656Z,98327.88
2023-05-24T08:17:01.576Z,98328.02
2023-05-24T08:19:35.167Z,98330.89
2023-05-24T08:22:05.898Z,98328.77
2023-05-24T08:24:33.014Z,98332.09
2023-05-24T08:27:00.723Z,98332.91
2023-05-24T08:29:27.996Z,98336.73
2023-05-24T08:31:55.260Z,98337.61
2023-05-24T08:34:22.412Z,98338.64
2023-05-24T08:36:49.469Z,98339.88
2023-05-24T08:39:16.762Z,98340.07
2023-05-24T08:41:47.544Z,98342.62
2023-05-24T08:44:23.305Z,98342.34
2023-05-24T08:46:50.866Z,98344.92
2023-05-24T08:49:18.336Z,98348.34
2023-05-24T08:51:45.801Z,98350.43
2023-05-24T08:54:14.081Z,98358.86
2023-05-24T08:56:41.414Z,98363.30
2023-05-24T08:59:08.668Z,98365.66
2023-05-24T09:01:40.187Z,98364.00
2023-05-24T09:04:08.409Z,98360.88
2023-05-24T09:06:36.610Z,98363.20
2023-05-24T09:09:04.479Z,98371.65
2023-05-24T09:11:32.875Z,98379.78
2023-05-24T09:14:01.535Z,98387.74
2023-05-24T09:16:29.160Z,98388.14
2023-05-24T09:18:56.593Z,98392.01
2023-05-24T09:21:25.277Z,98392.00
2023-05-24T09:23:53.505Z,98396.71
2023-05-24T09:26:21.214Z,98393.17
2023-05-24T09:28:50.219Z,98395.30
2023-05-24T09:31:18.222Z,98396.04
2023-05-24T09:33:48.489Z,98394.48
2023-05-24T09:36:16.804Z,98399.02
2023-05-24T09:38:44.055Z,98400.14
2023-05-24T09:41:11.728Z,98404.13
2023-05-24T09:43:49.276Z,98406.18
2023-05-24T09:46:19.287Z,98405.63
2023-05-24T09:49:12.802Z,98406.54
2023-05-24T09:51:40.247Z,98403.75
2023-05-24T09:54:09.260Z,98400.32
2023-05-24T09:56:39.697Z,98399.92
2023-05-24T09:59:10.320Z,98394.95
2023-05-24T10:01:38.557Z,98392.06
2023-05-24T10:04:09.877Z,98392.41
2023-05-24T10:06:38.643Z,98388.02
2023-05-24T10:09:07.314Z,98388.16
2023-05-24T10:11:39.497Z,98386.39
2023-05-24T10:14:09.064Z,98388.25
2023-05-24T10:16:37.909Z,98381.94
2023-05-24T10:19:06.773Z,98383.01
2023-05-24T10:21:38.496Z,98376.55
2023-05-24T10:24:09.061Z,98375.00
2023-05-24T10:26:38.959Z,98368.70
2023-05-24T10:29:09.264Z,98370.23
2023-05-24T10:31:41.135Z,98365.21
2023-05-24T10:34:09.848Z,98371.02
2023-05-24T10:36:39.942Z,98369.63
2023-05-24T10:39:12.215Z,98371.52
2023-05-24T10:41:41.349Z,98373.04
2023-05-24T10:44:12.957Z,98365.52
2023-05-24T10:47:20.017Z,98363.17
2023-05-24T10:50:04.124Z,98363.58
2023-05-24T10:52:35.695Z,98361.56
2023-05-24T10:55:08.913Z,98365.55
2023-05-24T10:57:37.808Z,98361.29
2023-05-24T11:00:30.678Z,98355.62
2023-05-24T11:03:09.769Z,98359.67
2023-05-24T11:05:46.745Z,98356.08
2023-05-24T11:08:14.552Z,98351.48
2023-05-24T11:10:44.828Z,98344.92
2023-05-24T11:13:12.325Z,98348.80
2023-05-24T11:15:39.898Z,98347.30
2023-05-24T11:18:11.827Z,98346.84
2023-05-24T11:20:46.672Z,98342.67
2023-05-24T11:23:15.474Z,98342.77
2023-05-24T11:25:42.774Z,98338.74
2023-05-24T11:28:11.764Z,98340.31
2023-05-24T11:30:44.061Z,98342.77
2023-05-24T11:33:18.131Z,98342.87
2023-05-24T11:35:46.711Z,98344.80
2023-05-24T11:38:15.346Z,98346.39
2023-05-24T11:40:44.787Z,98343.80
2023-05-24T11:43:17.747Z,98340.92
2023-05-24T11:45:51.276Z,98340.23
2023-05-24T11:48:19.385Z,98341.40
2023-05-24T11:50:51.008Z,98342.14
2023-05-24T11:53:22.383Z,98339.36
2023-05-24T11:55:50.855Z,98338.33
2023-05-24T11:58:25.928Z,98337.81
2023-05-24T12:00:53.086Z,98336.96
2023-05-24T12:03:21.349Z,98341.45
2023-05-24T12:05:48.917Z,98337.45
2023-05-24T12:08:16.762Z,98336.92
2023-05-24T12:10:44.399Z,98336.90
2023-05-24T12:13:25.660Z,98338.73
2023-05-24T12:15:57.650Z,98335.59
2023-05-24T12:18:26.462Z,98337.80
2023-05-24T12:20:54.778Z,98336.86
2023-05-24T12:23:32.255Z,98339.73
2023-05-24T12:26:00.759Z,98338.82
2023-05-24T12:28:35.580Z,98340.08
2023-05-24T12:31:04.418Z,98339.91
2023-05-24T12:33:32.431Z,98341.86
2023-05-24T12:36:00.407Z,98337.47
2023-05-24T12:38:28.203Z,98337.36
2023-05-24T12:41:11.262Z,98337.66
2023-05-24T12:43:40.560Z,98337.89
2023-05-24T12:46:07.660Z,98334.15
2023-05-24T12:48:34.859Z,98340.19
2023-05-24T12:51:02.685Z,98337.19
2023-05-24T12:53:30.251Z,98337.60
2023-05-24T12:55:59.978Z,98339.20
2023-05-24T12:58:27.120Z,98339.48
2023-05-24T13:00:54.319Z,98336.81
2023-05-24T13:03:22.309Z,98341.39
2023-05-24T13:05:49.716Z,98338.25
2023-05-24T13:08:17.288Z,98340.43
2023-05-24T13:10:44.650Z,98344.61
2023-05-24T13:13:11.902Z,98348.55
2023-05-24T13:15:39.001Z,98345.41
2023-05-24T13:18:06.262Z,98348.56
2023-05-24T13:20:33.863Z,98346.32
2023-05-24T13:23:00.954Z,98349.34
2023-05-24T13:25:29.012Z,98353.71
2023-05-24T13:27:56.776Z,98350.02
2023-05-24T13:30:27.144Z,98349.54
2023-05-24T13:32:55.706Z,98347.85
2023-05-24T13:35:25.122Z,98348.52
2023-05-24T13:37:53.678Z,98349.67
2023-05-24T13:40:21.676Z,98346.30
2023-05-24T13:42:48.760Z,98345.81
2023-05-24T13:45:16.061Z,98339.66
2023-05-24T13:47:43.643Z,98340.45
2023-05-24T13:50:11.627Z,98331.63
2023-05-24T13:52:39.079Z,98331.58
2023-05-24T13:55:06.927Z,98328.16
2023-05-24T14:00:08.832Z,98326.95
2023-05-24T14:02:35.913Z,98328.16
2023-05-24T14:05:21.637Z,98329.60
2023-05-24T14:07:50.691Z,98329.30
2023-05-24T14:10:19.948Z,98327.86
2023-05-24T14:12:59.470Z,98334.54
2023-05-24T14:15:31.386Z,98334.17
2023-05-24T14:18:01.182Z,98331.02
2023-05-24T14:20:28.289Z,98326.67
2023-05-24T14:22:57.146Z,98325.11
2023-05-24T14:25:25.492Z,98324.34
2023-05-24T14:27:52.573Z,98321.71
2023-05-24T14:30:19.679Z,98319.92
2023-05-24T14:32:46.725Z,98319.91
2023-05-24T14:35:14.116Z,98314.80
2023-05-24T14:37:41.507Z,98310.47
2023-05-24T14:40:09.783Z,98309.94
2023-05-24T14:42:37.049Z,98309.24
2023-05-24T14:45:04.817Z,98305.52
2023-05-24T14:47:32.149Z,98304.54
2023-05-24T14:49:59.412Z,98311.52
2023-05-24T14:52:26.994Z,98305.77
2023-05-24T14:54:54.152Z,98307.49
2023-05-24T14:57:21.511Z,98308.14
2023-05-24T14:59:48.665Z,98309.91
2023-05-24T15:02:15.748Z,98309.05
2023-05-24T15:04:43.494Z,98308.48
2023-05-24T15:07:11.012Z,98311.39
2023-05-24T15:09:38.178Z,98305.73
2023-05-24T15:12:05.547Z,98307.58
2023-05-24T15:14:32.627Z,98309.23
2023-05-24T15:17:00.222Z,98309.64
2023-05-24T15:19:27.756Z,98311.36
2023-05-24T15:21:54.911Z,98308.71
2023-05-24T15:24:21.837Z,98308.20
2023-05-24T15:26:49.021Z,98309.14
2023-05-24T15:29:17.101Z,98310.70
2023-05-24T15:31:44.480Z,98306.67
2023-05-24T15:34:11.672Z,98307.29
2023-05-24T15:36:38.779Z,98308.23
2023-05-24T15:39:06.005Z,98312.10
2023-05-24T15:41:33.021Z,98309.91
2023-05-24T15:44:01.966Z,98307.77
2023-05-24T15:46:29.082Z,98310.05
2023-05-24T15:48:56.706Z,98312.04
2023-05-24T15:52:01.707Z,98315.56
2023-05-24T15:54:10.825Z,98315.23
2023-05-24T15:56:37.934Z,98314.09
2023-05-24T15:59:05.216Z,98318.48
2023-05-24T16:01:32.242Z,98318.13
2023-05-24T16:04:00.174Z,98315.25
2023-05-24T16:06:27.361Z,98312.55
2023-05-24T16:08:54.398Z,98308.24
2023-05-24T16:11:23.180Z,98311.35
2023-05-24T16:13:50.660Z,98307.48
2023-05-24T16:16:18.096Z,98305.56
2023-05-24T16:18:45.597Z,98308.85
2023-05-24T16:21:12.852Z,98308.25
2023-05-24T16:23:40.211Z,98309.61
2023-05-24T16:26:07.445Z,98303.90
2023-05-24T16:28:34.729Z,98300.96
2023-05-24T16:31:03.527Z,98299.23
2023-05-24T16:33:30.852Z,98299.03
2023-05-24T16:36:02.150Z,98296.95
2023-05-24T16:38:30.622Z,98297.38
2023-05-24T16:40:57.975Z,98299.39
2023-05-24T16:43:25.649Z,98295.77
2023-05-24T16:45:53.195Z,98288.64
2023-05-24T16:48:22.787Z,98286.55
2023-05-24T16:50:51.201Z,98287.92
2023-05-24T16:53:19.821Z,98286.52
2023-05-24T16:55:49.029Z,98287.84
2023-05-24T16:58:16.254Z,98292.13
2023-05-24T17:00:43.442Z,98291.57
2023-05-24T17:03:10.946Z,98294.69
2023-05-24T17:05:38.576Z,98296.57
2023-05-24T17:08:06.123Z,98297.59
2023-05-24T17:10:33.633Z,98299.05
2023-05-24T17:13:00.646Z,98300.90
2023-05-24T17:15:27.734Z,98300.73
2023-05-24T17:17:55.558Z,98305.69
2023-05-24T17:20:22.842Z,98302.83
2023-05-24T17:22:50.125Z,98304.17
2023-05-24T17:25:17.532Z,98304.54
2023-05-24T17:27:44.557Z,98305.79
2023-05-24T17:30:12.102Z,98308.91
2023-05-24T17:32:39.691Z,98310.09
2023-05-24T17:35:06.957Z,98311.32
2023-05-24T17:37:34.034Z,98314.90
2023-05-24T17:40:00.961Z,98313.81
2023-05-24T17:42:28.006Z,98316.74
2023-05-24T17:44:55.057Z,98318.14
2023-05-24T17:47:22.237Z,98323.39
2023-05-24T17:49:49.401Z,98319.20
2023-05-24T17:52:16.344Z,98322.24
2023-05-24T17:54:43.454Z,98322.54
2023-05-24T17:57:10.749Z,98326.48
2023-05-24T17:59:38.010Z,98327.47
2023-05-24T18:02:05.988Z,98328.11
2023-05-24T18:04:33.038Z,98330.88
2023-05-24T18:07:00.355Z,98330.31
2023-05-24T18:09:29.007Z,98335.04
2023-05-24T18:11:56.410Z,98336.36
2023-05-24T18:14:23.507Z,98333.20
2023-05-24T18:16:50.783Z,98345.38
2023-05-24T18:19:18.166Z,98343.27
2023-05-24T18:21:46.167Z,98351.09
2023-05-24T18:24:13.351Z,98359.04
2023-05-24T18:26:40.496Z,98362.02
2023-05-24T18:29:07.528Z,98367.06
2023-05-24T18:31:34.582Z,98367.92
2023-05-24T18:34:02.547Z,98373.13
2023-05-24T18:36:29.951Z,98373.88
2023-05-24T18:38:57.014Z,98376.19
2023-05-24T18:41:24.052Z,98378.38
2023-05-24T18:43:51.122Z,98381.84
2023-05-24T18:46:18.084Z,98385.42
2023-05-24T18:48:45.764Z,98389.04
2023-05-24T18:51:13.110Z,98390.77
2023-05-24T18:53:40.333Z,98394.62
2023-05-24T18:56:07.771Z,98397.55
2023-05-24T18:58:34.817Z,98399.85
2023-05-24T19:01:01.859Z,98405.28
2023-05-24T19:03:29.039Z,98411.65
2023-05-24T19:05:56.040Z,98413.29
2023-05-24T19:08:23.098Z,98416.42
2023-05-24T19:10:50.179Z,98418.80
2023-05-24T19:13:17.349Z,98426.02
2023-05-24T19:15:44.597Z,98424.95
2023-05-24T19:18:11.796Z,98424.50
2023-05-24T19:20:39.078Z,98425.29
2023-05-24T19:23:06.278Z,98426.30
2023-05-24T19:25:41.393Z,98426.75
2023-05-24T19:28:10.896Z,98427.08
2023-05-24T19:30:37.879Z,98428.36
2023-05-24T19:33:05.982Z,98422.77
2023-05-24T19:35:34.072Z,98428.31
2023-05-24T19:38:01.079Z,98432.25
2023-05-24T19:40:28.185Z,98433.11
2023-05-24T19:42:55.453Z,98429.30
2023-05-24T19:45:22.844Z,98431.22
2023-05-24T19:47:49.992Z,98431.09
2023-05-24T19:50:18.308Z,98430.20
2023-05-24T19:52:45.278Z,98433.76
2023-05-24T19:55:12.246Z,98432.02
2023-05-24T19:57:39.232Z,98434.39
2023-05-24T20:00:07.193Z,98429.92
2023-05-24T20:02:40.445Z,98427.94
2023-05-24T20:05:08.380Z,98428.73
2023-05-24T20:07:35.309Z,98421.27
2023-05-24T20:10:04.531Z,98415.98
2023-05-24T20:12:33.829Z,98420.34
2023-05-24T20:15:00.908Z,98418.52
2023-05-24T20:17:28.131Z,98418.73
2023-05-24T20:19:55.511Z,98421.88
2023-05-24T20:22:22.597Z,98420.11
2023-05-24T20:24:50.043Z,98423.77
2023-05-24T20:27:17.175Z,98426.79
2023-05-24T20:29:44.330Z,98427.31
2023-05-24T20:32:11.655Z,98428.04
2023-05-24T20:34:39.012Z,98426.05
2023-05-24T20:37:06.259Z,98427.64
2023-05-24T20:39:33.527Z,98424.83
2023-05-24T20:42:01.613Z,98427.14
2023-05-24T20:44:28.746Z,98428.11
2023-05-24T20:46:55.995Z,98430.22
2023-05-24T20:49:22.977Z,98434.31
2023-05-24T20:51:50.146Z,98434.64
2023-05-24T20:54:17.126Z,98427.23
2023-05-24T20:56:44.238Z,98432.26
2023-05-24T20:59:11.372Z,98439.89
2023-05-24T21:01:38.488Z,98445.38
2023-05-24T21:04:05.711Z,98447.93
2023-05-24T21:06:34.154Z,98455.00
2023-05-24T21:09:01.679Z,98460.31
2023-05-24T21:11:29.103Z,98461.02
2023-05-24T21:13:57.575Z,98462.70
2023-05-24T21:16:25.285Z,98464.63
2023-05-24T21:18:52.420Z,98471.81
2023-05-24T21:21:19.623Z,98471.94
2023-05-24T21:23:46.781Z,98472.73
2023-05-24T21:26:13.846Z,98476.13
2023-05-24T21:28:40.867Z,98477.98
2023-05-24T21:31:07.990Z,98477.82
2023-05-24T21:33:39.021Z,98477.06
2023-05-24T21:36:06.189Z,98475.54
2023-05-24T21:38:33.490Z,98476.79
2023-05-24T21:41:00.700Z,98480.77
2023-05-24T21:43:27.752Z,98478.87
2023-05-24T21:45:54.912Z,98478.70
2023-05-24T21:48:22.162Z,98479.36
2023-05-24T21:50:49.420Z,98479.08
2023-05-24T21:53:16.562Z,98483.61
2023-05-24T21:55:43.864Z,98479.95
2023-05-24T21:58:11.058Z,98484.62
2023-05-24T22:00:38.159Z,98486.80
2023-05-24T22:03:05.397Z,98486.24
2023-05-24T22:05:32.594Z,98489.42
2023-05-24T22:07:59.651Z,98490.66
2023-05-24T22:10:27.202Z,98487.45
2023-05-24T22:12:54.279Z,98486.95
2023-05-24T22:15:21.520Z,98489.46
2023-05-24T22:17:48.593Z,98488.15
2023-05-24T22:20:16.493Z,98492.14
2023-05-24T22:22:53.007Z,98493.45
2023-05-24T22:25:20.511Z,98497.98
2023-05-24T22:27:48.279Z,98494.77
2023-05-24T22:30:16.399Z,98495.75
2023-05-24T22:32:43.999Z,98496.95
2023-05-24T22:35:11.160Z,98499.90
2023-05-24T22:37:38.598Z,98499.45
2023-05-24T22:40:07.232Z,98497.60
2023-05-24T22:42:34.426Z,98498.71
2023-05-24T22:45:01.663Z,98497.55
2023-05-24T22:47:32.607Z,98496.48
2023-05-24T22:50:01.448Z,98494.77
2023-05-24T22:52:29.681Z,98494.09
2023-05-24T22:54:56.782Z,98499.06
2023-05-24T22:57:23.887Z,98504.73
2023-05-24T22:59:51.020Z,98506.67
2023-05-24T23:02:18.516Z,98505.70
2023-05-24T23:04:45.706Z,98499.59
2023-05-24T23:07:16.475Z,98499.54
2023-05-24T23:09:43.955Z,98501.13
2023-05-24T23:12:11.478Z,98505.05
2023-05-24T23:14:40.885Z,98509.02
2023-05-24T23:17:15.386Z,98508.09
2023-05-24T23:19:43.189Z,98512.35
2023-05-24T23:22:17.823Z,98515.04
2023-05-24T23:24:46.973Z,98517.05
2023-05-24T23:27:14.100Z,98517.30
2023-05-24T23:29:41.184Z,98513.83
2023-05-24T23:32:09.361Z,98513.27
2023-05-24T23:34:36.961Z,98514.25
2023-05-24T23:37:04.857Z,98507.83
2023-05-24T23:39:32.029Z,98502.02
2023-05-24T23:41:59.100Z,98502.53
2023-05-24T23:44:26.384Z,98502.19
2023-05-24T23:46:53.629Z,98502.89
2023-05-24T23:49:20.950Z,98502.73
2023-05-24T23:51:48.456Z,98507.50
2023-05-24T23:54:15.610Z,98507.89
2023-05-24T23:56:42.822Z,98510.79
2023-05-24T23:59:10.171Z,98508.60
